Terminal Aerodrome Forecast
Issued by NWS

Home | Current Version | Previous Version | Text Only | Print | Product List | Glossary On
Versions: 1 2 3 4 5 6 7 8 9 10 11 12 13 14 15 16 17
000
FTAK31 PAJN 301200 AAA
TAFAYA
TAF AMD
PAYA 301256Z 3013/0112 10003KT 4SM -RA BKN020 OVC030
      TEMPO 3013/3017 2SM RA BR BKN015 OVC025
     FM301700 14006KT 4SM -RA BR BKN015 OVC025
     FM302200 14008KT P6SM -RA SCT015 OVC025
     FM010300 15005KT 6SM -RA BKN015 OVC025
      AMD LTD TO CLD VIS AND WIND 0101/0110=

USA.gov is the U.S. government's official web portal to all federal, state and local government web resources and services.